Risinger Woods, Louisiana
Current Conditions -  °F | °C
As of 4:04 AM on Friday 21 Nov 2014 (Local Time) from KDTN Reporting Station
Overcast Overcast  
Wind Chill: 13°   Ceiling: 7000
Heat Index: 13°   Visibility: 10mi
Dew Point: 10°   Wind: 7mph
Humidity: 83%   Direction: 170°S
Pressure: 30.17"   Gusts: NA
Location:  32.5955°N, 93.8642°W
Report Text: KDTN 211004Z AUTO 17006KT 10SM SCT024 OVC070 13/10 A3017 RMK AO2 RAE04 P0000 T01280100
Loading
Personal Weather Stations






























Interactive Weather Map New forecast layout! Learn more

10-Day Weather Forecast

Advertisements
Track Severe Weather on mobile